Terminal Aerodrome Forecast
Issued by NWS Twin Cities, MN

Home | Current Version | Previous Version | Graphics & Text | Print | Product List | Glossary On
Versions: 1 2 3 4 5 6 7 8 9 10 11 12 13 14 15 16 17 18 19 20 21 22 23 24 25 26
000
FTUS43 KMPX 222000 AAA
TAFMSP
TAF AMD
KMSP 222056Z 2221/2324 34010G15KT P6SM SCT300
     FM222200 01008KT P6SM SCT250
     FM230100 06006KT P6SM BKN200
     FM230300 11006KT P6SM BKN200
     FM231100 12009KT P6SM BKN070 OVC100
     FM231600 12013G17KT P6SM -SHRA SCT030 OVC060
     FM232200 12013G18KT P6SM VCSH BKN040=

USA.gov is the U.S. government's official web portal to all federal, state and local government web resources and services.